createdAt,value
2016-03-17T00:00:14.915Z,2.87
2016-03-17T00:01:14.856Z,2.92
2016-03-17T00:02:14.843Z,2.84
2016-03-17T00:03:14.783Z,2.85
2016-03-17T00:04:14.754Z,2.82
2016-03-17T00:05:14.726Z,2.88
2016-03-17T00:06:14.697Z,2.85
2016-03-17T00:07:14.669Z,2.91
2016-03-17T00:08:14.624Z,2.94
2016-03-17T00:09:14.580Z,2.94
2016-03-17T00:10:14.552Z,2.94
2016-03-17T00:11:14.522Z,3
2016-03-17T00:12:14.479Z,3
2016-03-17T00:13:14.450Z,2.92
2016-03-17T00:14:14.422Z,2.95
2016-03-17T00:15:14.377Z,2.94
2016-03-17T00:16:14.365Z,2.95
2016-03-17T00:17:14.305Z,2.94
2016-03-17T00:18:14.276Z,2.87
2016-03-17T00:19:14.249Z,2.91
2016-03-17T00:20:14.219Z,2.74
2016-03-17T00:21:14.175Z,2.91
2016-03-17T00:22:14.163Z,2.88
2016-03-17T00:23:14.118Z,2.84
2016-03-17T00:24:14.090Z,2.85
2016-03-17T00:25:14.030Z,2.85
2016-03-17T00:26:14.032Z,2.88
2016-03-17T00:27:13.972Z,2.89
2016-03-17T00:28:13.943Z,2.84
2016-03-17T00:29:13.900Z,2.76
2016-03-17T00:30:13.871Z,2.84
2016-03-17T00:31:13.827Z,2.7
2016-03-17T00:32:13.689Z,2.74
2016-03-17T00:33:13.770Z,2.76
2016-03-17T00:34:13.741Z,2.74
2016-03-17T00:35:13.697Z,2.69
2016-03-17T00:36:13.669Z,2.73
2016-03-17T00:37:13.640Z,2.73
2016-03-17T00:38:13.612Z,2.7
2016-03-17T00:39:13.567Z,2.63
2016-03-17T00:40:13.539Z,2.69
2016-03-17T00:41:13.494Z,2.59
2016-03-17T00:42:13.466Z,2.58
2016-03-17T00:43:13.421Z,2.56
2016-03-17T00:44:13.393Z,2.45
2016-03-17T00:45:13.373Z,2.48
2016-03-17T00:46:13.344Z,2.55
2016-03-17T00:47:13.378Z,2.48
2016-03-17T00:48:13.256Z,2.45
2016-03-17T00:49:13.244Z,2.45
2016-03-17T00:50:13.200Z,2.49
2016-03-17T00:51:13.155Z,2.48
2016-03-17T00:52:13.127Z,2.48
2016-03-17T00:53:13.083Z,2.38
2016-03-17T00:54:13.053Z,2.45
2016-03-17T00:55:13.025Z,2.55
2016-03-17T00:56:13.013Z,2.53
2016-03-17T00:57:12.969Z,2.49
2016-03-17T00:58:12.924Z,2.46
2016-03-17T00:59:12.880Z,2.48
2016-03-17T01:00:12.852Z,2.37
2016-03-17T01:01:12.822Z,2.33
2016-03-17T01:02:12.966Z,2.27
2016-03-17T01:03:12.766Z,2.35
2016-03-17T01:04:12.721Z,2.27
2016-03-17T01:05:12.693Z,2.33
2016-03-17T01:06:12.665Z,2.28
2016-03-17T01:07:13.037Z,2.27
2016-03-17T01:08:12.571Z,2.2
2016-03-17T01:09:12.558Z,2.19
2016-03-17T01:10:12.513Z,2.17
2016-03-17T01:11:12.470Z,2.17
2016-03-17T01:12:12.441Z,2.17
2016-03-17T01:13:12.429Z,2.19
2016-03-17T01:14:12.384Z,2.22
2016-03-17T01:15:12.371Z,2.19
2016-03-17T01:16:12.295Z,2.17
2016-03-17T01:17:12.143Z,2.15
2016-03-17T01:18:12.239Z,2.13
2016-03-17T01:19:12.226Z,2.04
2016-03-17T01:20:12.166Z,1.99
2016-03-17T01:21:12.153Z,2.06
2016-03-17T01:22:12.109Z,1.91
2016-03-17T01:23:12.064Z,1.97
2016-03-17T01:24:13.145Z,1.82
2016-03-17T01:25:16.476Z,1.73
2016-03-17T01:26:16.057Z,1.71
2016-03-17T01:27:16.153Z,1.75
2016-03-17T01:28:15.891Z,1.69
2016-03-17T01:29:15.628Z,1.58
2016-03-17T01:30:16.052Z,1.57
2016-03-17T01:31:15.899Z,1.5
2016-03-17T01:32:15.854Z,1.44
2016-03-17T01:33:15.747Z,1.43
2016-03-17T01:34:15.735Z,1.29
2016-03-17T01:35:15.971Z,1.33
2016-03-17T01:36:15.833Z,1.24
2016-03-17T01:37:14.868Z,1.25
2016-03-17T01:38:14.371Z,1.08
2016-03-17T01:39:15.249Z,1.12
2016-03-17T01:40:11.470Z,1.12
2016-03-17T01:41:11.441Z,1.16
2016-03-17T01:42:11.429Z,1.04
2016-03-17T01:43:11.385Z,1.07
2016-03-17T01:44:11.340Z,1.18
2016-03-17T01:45:11.312Z,1.14
2016-03-17T01:46:11.268Z,1.12
2016-03-17T01:47:11.254Z,1.07
2016-03-17T01:48:11.195Z,1.24
2016-03-17T01:49:11.165Z,1.28
2016-03-17T01:50:11.137Z,1.39
2016-03-17T01:51:11.109Z,1.29
2016-03-17T01:52:11.081Z,1.29
2016-03-17T01:53:11.037Z,1.36
2016-03-17T01:54:11.007Z,1.32
2016-03-17T01:55:10.964Z,1.26
2016-03-17T01:56:10.951Z,1.32
2016-03-17T01:57:10.890Z,1.26
2016-03-17T01:58:10.862Z,1.37
2016-03-17T01:59:10.817Z,1.36
2016-03-17T02:00:10.790Z,1.32
2016-03-17T02:01:10.745Z,1.26
2016-03-17T02:02:10.733Z,1.25
2016-03-17T02:03:10.688Z,1.14
2016-03-17T02:04:10.659Z,1.06
2016-03-17T02:05:10.615Z,1.12
2016-03-17T02:06:10.586Z,1.08
2016-03-17T02:07:10.542Z,1
2016-03-17T02:08:10.498Z,0.96
2016-03-17T02:09:10.469Z,0.94
2016-03-17T02:10:10.441Z,0.85
2016-03-17T02:11:10.413Z,0.88
2016-03-17T02:12:10.368Z,0.88
2016-03-17T02:13:10.341Z,0.82
2016-03-17T02:14:10.311Z,0.89
2016-03-17T02:15:10.252Z,0.92
2016-03-17T02:16:10.224Z,0.98
2016-03-17T02:17:10.194Z,1.01
2016-03-17T02:18:10.151Z,0.98
2016-03-17T02:19:10.121Z,0.98
2016-03-17T02:20:10.109Z,0.96
2016-03-17T02:21:10.080Z,1.01
2016-03-17T02:22:10.020Z,0.9
2016-03-17T02:23:09.993Z,0.82
2016-03-17T02:24:09.948Z,0.85
2016-03-17T02:25:09.920Z,0.83
2016-03-17T02:26:09.891Z,0.86
2016-03-17T02:27:09.862Z,0.86
2016-03-17T02:28:09.803Z,0.85
2016-03-17T02:29:09.773Z,0.79
2016-03-17T02:30:09.745Z,0.8
2016-03-17T02:31:09.717Z,0.78
2016-03-17T02:32:09.673Z,0.65
2016-03-17T02:33:09.644Z,0.65
2016-03-17T02:34:09.615Z,0.78
2016-03-17T02:35:09.571Z,0.65
2016-03-17T02:36:09.527Z,0.61
2016-03-17T02:37:09.498Z,0.71
2016-03-17T02:38:09.298Z,0.71
2016-03-17T02:39:09.426Z,0.8
2016-03-17T02:40:09.381Z,0.8
2016-03-17T02:41:09.369Z,0.8
2016-03-17T02:42:09.324Z,0.82
2016-03-17T02:43:09.280Z,0.86
2016-03-17T02:44:09.236Z,0.88
2016-03-17T02:45:09.223Z,0.8
2016-03-17T02:46:09.179Z,0.79
2016-03-17T02:47:09.150Z,0.79
2016-03-17T02:48:09.107Z,0.68
2016-03-17T02:49:09.077Z,0.8
2016-03-17T02:50:09.049Z,0.78
2016-03-17T02:51:09.005Z,0.68
2016-03-17T02:52:08.976Z,0.72
2016-03-17T02:53:08.949Z,0.72
2016-03-17T02:54:08.904Z,0.68
2016-03-17T02:55:08.891Z,0.68
2016-03-17T02:56:08.831Z,0.65
2016-03-17T02:57:08.787Z,0.71
2016-03-17T02:58:08.758Z,0.65
2016-03-17T02:59:08.730Z,0.67
2016-03-17T03:00:08.701Z,0.65
2016-03-17T03:01:08.672Z,0.67
2016-03-17T03:02:08.612Z,0.67
2016-03-17T03:03:08.584Z,0.64
2016-03-17T03:04:08.556Z,0.65
2016-03-17T03:05:08.512Z,0.6
2016-03-17T03:06:08.483Z,0.53
2016-03-17T03:07:08.439Z,0.62
2016-03-17T03:08:08.411Z,0.46
2016-03-17T03:09:08.367Z,0.51
2016-03-17T03:10:08.352Z,0.52
2016-03-17T03:11:08.308Z,0.45
2016-03-17T03:12:08.264Z,0.39
2016-03-17T03:13:08.236Z,0.33
2016-03-17T03:14:08.191Z,0.3
2016-03-17T03:15:08.163Z,0.24
2016-03-17T03:16:08.134Z,0.3
2016-03-17T03:17:08.090Z,0.21
2016-03-17T03:18:08.046Z,0.21
2016-03-17T03:19:08.018Z,0.28
2016-03-17T03:20:07.988Z,0.24
2016-03-17T03:21:07.945Z,0.27
2016-03-17T03:22:07.901Z,0.24
2016-03-17T03:23:07.872Z,0.25
2016-03-17T03:24:07.844Z,0.41
2016-03-17T03:25:07.816Z,0.41
2016-03-17T03:26:07.771Z,0.39
2016-03-17T03:27:07.727Z,0.48
2016-03-17T03:28:07.698Z,0.58
2016-03-17T03:29:07.670Z,0.65
2016-03-17T03:30:07.641Z,0.62
2016-03-17T03:31:07.597Z,0.7
2016-03-17T03:32:07.553Z,0.62
2016-03-17T03:33:07.523Z,0.61
2016-03-17T03:34:07.495Z,0.65
2016-03-17T03:35:07.451Z,0.64
2016-03-17T03:36:07.423Z,0.6
2016-03-17T03:37:07.379Z,0.58
2016-03-17T03:38:07.338Z,0.72
2016-03-17T03:39:07.281Z,0.71
2016-03-17T03:40:07.241Z,0.76
2016-03-17T03:41:07.200Z,0.9
2016-03-17T03:42:07.143Z,0.85
2016-03-17T03:43:07.095Z,0.76
2016-03-17T03:44:07.062Z,0.7
2016-03-17T03:45:07.029Z,0.62
2016-03-17T03:46:06.980Z,0.67
2016-03-17T03:47:06.947Z,0.64
2016-03-17T03:48:06.902Z,0.61
2016-03-17T03:49:06.872Z,0.67
2016-03-17T03:50:06.826Z,0.65
2016-03-17T03:51:06.796Z,0.75
2016-03-17T03:52:06.767Z,0.82
2016-03-17T03:53:06.737Z,0.79
2016-03-17T03:54:06.693Z,0.83
2016-03-17T03:55:06.647Z,0.8
2016-03-17T03:56:06.603Z,0.86
2016-03-17T03:57:06.573Z,0.96
2016-03-17T03:58:06.544Z,0.98
2016-03-17T03:59:06.360Z,1
2016-03-17T04:00:06.472Z,0.98
2016-03-17T04:01:06.427Z,0.97
2016-03-17T04:02:06.415Z,0.98
2016-03-17T04:03:06.370Z,0.94
2016-03-17T04:04:06.326Z,0.97
2016-03-17T04:05:06.297Z,1.03
2016-03-17T04:06:06.268Z,1.01
2016-03-17T04:07:06.225Z,0.97
2016-03-17T04:08:06.211Z,0.97
2016-03-17T04:09:06.151Z,1.06
2016-03-17T04:10:06.108Z,0.98
2016-03-17T04:11:06.079Z,0.98
2016-03-17T04:12:06.051Z,1.12
2016-03-17T04:13:06.006Z,1.08
2016-03-17T04:14:05.978Z,1.1
2016-03-17T04:15:05.950Z,1.07
2016-03-17T04:16:05.905Z,1.04
2016-03-17T04:17:05.861Z,1.12
2016-03-17T04:18:05.848Z,1.12
2016-03-17T04:19:05.803Z,1.14
2016-03-17T04:20:05.760Z,1.12
2016-03-17T04:21:05.715Z,1.08
2016-03-17T04:22:05.686Z,1.16
2016-03-17T04:23:05.658Z,1.1
2016-03-17T04:24:05.630Z,1.12
2016-03-17T04:25:05.586Z,1.21
2016-03-17T04:26:05.541Z,1.15
2016-03-17T04:27:05.497Z,1.18
2016-03-17T04:28:05.469Z,1.07
2016-03-17T04:29:05.441Z,1.15
2016-03-17T04:30:05.412Z,0.98
2016-03-17T04:31:05.383Z,1.08
2016-03-17T04:32:05.338Z,1.03
2016-03-17T04:33:05.310Z,1.01
2016-03-17T04:34:05.281Z,1
2016-03-17T04:35:05.253Z,1.01
2016-03-17T04:36:05.193Z,1.01
2016-03-17T04:37:05.164Z,1.03
2016-03-17T04:38:05.120Z,0.98
2016-03-17T04:39:05.092Z,1.07
2016-03-17T04:40:05.064Z,1.01
2016-03-17T04:41:05.020Z,1.03
2016-03-17T04:42:04.991Z,0.98
2016-03-17T04:43:04.947Z,1.07
2016-03-17T04:44:04.903Z,1.03
2016-03-17T04:45:04.873Z,1.06
2016-03-17T04:46:04.845Z,0.98
2016-03-17T04:47:04.817Z,0.96
2016-03-17T04:48:04.773Z,0.96
2016-03-17T04:49:04.744Z,0.92
2016-03-17T04:50:04.700Z,0.98
2016-03-17T04:51:04.671Z,0.96
2016-03-17T04:52:04.627Z,0.9
2016-03-17T04:53:04.582Z,1
2016-03-17T04:54:04.554Z,0.94
2016-03-17T04:55:04.525Z,0.97
2016-03-17T04:56:04.482Z,1.03
2016-03-17T04:57:04.468Z,0.94
2016-03-17T04:58:04.425Z,1
2016-03-17T04:59:04.380Z,0.98
2016-03-17T05:00:04.336Z,1
2016-03-17T05:01:04.307Z,0.96
2016-03-17T05:02:04.263Z,0.98
2016-03-17T05:03:04.235Z,0.96
2016-03-17T05:04:04.206Z,0.88
2016-03-17T05:05:04.193Z,0.86
2016-03-17T05:06:04.134Z,0.86
2016-03-17T05:07:04.089Z,0.85
2016-03-17T05:08:04.060Z,0.86
2016-03-17T05:09:04.016Z,0.83
2016-03-17T05:10:03.987Z,0.88
2016-03-17T05:11:03.959Z,0.88
2016-03-17T05:12:03.915Z,0.79
2016-03-17T05:13:03.871Z,0.88
2016-03-17T05:14:03.843Z,0.88
2016-03-17T05:15:03.798Z,0.8
2016-03-17T05:16:03.769Z,0.88
2016-03-17T05:17:03.726Z,0.83
2016-03-17T05:18:03.619Z,0.8
2016-03-17T05:19:03.669Z,0.83
2016-03-17T05:20:03.624Z,0.82
2016-03-17T05:21:03.595Z,0.83
2016-03-17T05:22:03.552Z,0.7
2016-03-17T05:23:03.523Z,0.68
2016-03-17T05:24:03.479Z,0.67
2016-03-17T05:25:03.560Z,0.64
2016-03-17T05:26:03.406Z,0.62
2016-03-17T05:27:03.377Z,0.51
2016-03-17T05:28:03.349Z,0.51
2016-03-17T05:29:03.321Z,0.45
2016-03-17T05:30:03.276Z,0.48
2016-03-17T05:31:03.247Z,0.39
2016-03-17T05:32:03.187Z,0.34
2016-03-17T05:33:03.191Z,0.38
2016-03-17T05:34:03.130Z,0.25
2016-03-17T05:35:03.087Z,0.21
2016-03-17T05:36:03.058Z,0.21
2016-03-17T05:37:03.013Z,0.16
2016-03-17T05:38:02.985Z,0.18
2016-03-17T05:39:02.941Z,0.03
2016-03-17T05:40:02.912Z,0.09
2016-03-17T05:41:02.884Z,0.09
2016-03-17T05:42:02.840Z,0.13
2016-03-17T05:43:02.812Z,0.15
2016-03-17T05:44:02.767Z,0.07
2016-03-17T05:45:02.739Z,0.09
2016-03-17T05:46:02.678Z,0.1
2016-03-17T05:47:02.665Z,0.15
2016-03-17T05:48:02.653Z,0.07
2016-03-17T05:49:02.577Z,0.1
2016-03-17T05:50:02.548Z,0.09
2016-03-17T05:51:02.504Z,0.06
2016-03-17T05:52:02.491Z,0.03
2016-03-17T05:53:02.447Z,-0.04
2016-03-17T05:54:02.403Z,-0.01
2016-03-17T05:55:02.375Z,-0.09
2016-03-17T05:56:02.330Z,0.03
2016-03-17T05:57:02.302Z,0.03
2016-03-17T05:58:02.273Z,-0.05
2016-03-17T05:59:02.229Z,0
2016-03-17T06:00:02.200Z,0.02
2016-03-17T06:01:02.157Z,-0.04
2016-03-17T06:02:02.113Z,-0.04
2016-03-17T06:03:01.958Z,0.02
2016-03-17T06:04:02.055Z,-0.06
2016-03-17T06:05:02.011Z,0.09
2016-03-17T06:06:01.983Z,0.12
2016-03-17T06:07:01.969Z,0.06
2016-03-17T06:08:01.894Z,0.06
2016-03-17T06:09:01.865Z,0.13
2016-03-17T06:10:01.837Z,0.16
2016-03-17T06:11:01.793Z,0.13
2016-03-17T06:12:01.764Z,0.15
2016-03-17T06:13:01.735Z,0.15
2016-03-17T06:14:01.691Z,0.12
2016-03-17T06:15:01.648Z,0.09
2016-03-17T06:16:01.618Z,0.15
2016-03-17T06:17:01.575Z,0.16
2016-03-17T06:18:01.546Z,0.16
2016-03-17T06:19:01.517Z,0.2
2016-03-17T06:20:01.473Z,0.16
2016-03-17T06:21:01.445Z,0.16
2016-03-17T06:22:01.416Z,0.24
2016-03-17T06:23:01.372Z,0.23
2016-03-17T06:24:01.327Z,0.2
2016-03-17T06:25:01.283Z,0.3
2016-03-17T06:26:01.254Z,0.36
2016-03-17T06:27:01.226Z,0.39
2016-03-17T06:28:01.197Z,0.45
2016-03-17T06:29:01.168Z,0.51
2016-03-17T06:30:01.125Z,0.52
2016-03-17T06:31:01.080Z,0.49
2016-03-17T06:32:01.036Z,0.65
2016-03-17T06:33:01.008Z,0.65
2016-03-17T06:34:00.980Z,0.7
2016-03-17T06:35:00.951Z,0.62
2016-03-17T06:36:00.907Z,0.76
2016-03-17T06:37:01.111Z,0.76
2016-03-17T06:38:00.548Z,0.71
2016-03-17T06:39:00.785Z,0.8
2016-03-17T06:40:02.969Z,0.79
2016-03-17T06:41:00.736Z,0.86
2016-03-17T06:42:00.692Z,0.78
2016-03-17T06:43:00.648Z,0.8
2016-03-17T06:44:00.619Z,0.79
2016-03-17T06:45:00.591Z,0.83
2016-03-17T06:46:00.547Z,0.83
2016-03-17T06:47:00.518Z,0.85
2016-03-17T06:48:00.474Z,0.94
2016-03-17T06:49:00.461Z,0.9
2016-03-17T06:50:00.420Z,0.92
2016-03-17T06:51:00.235Z,1.04
2016-03-17T06:52:00.332Z,0.98
2016-03-17T06:53:00.303Z,0.98
2016-03-17T06:54:00.259Z,1.08
2016-03-17T06:55:00.230Z,1.12
2016-03-17T06:56:00.201Z,1.19
2016-03-17T06:57:00.157Z,1.33
2016-03-17T06:58:00.129Z,1.29
2016-03-17T06:59:00.084Z,1.34
2016-03-17T07:00:00.072Z,1.4
2016-03-17T07:01:00.043Z,1.47
2016-03-17T07:01:59.983Z,1.44
2016-03-17T07:02:59.954Z,1.51
2016-03-17T07:03:59.911Z,1.62
2016-03-17T07:04:59.914Z,1.64
2016-03-17T07:05:59.853Z,1.65
2016-03-17T07:06:59.840Z,1.69
2016-03-17T07:07:59.765Z,1.72
2016-03-17T07:08:59.737Z,1.73
2016-03-17T07:09:59.706Z,1.75
2016-03-17T07:10:59.678Z,1.94
2016-03-17T07:11:59.664Z,1.97
2016-03-17T07:12:59.589Z,1.91
2016-03-17T07:13:59.592Z,2.01
2016-03-17T07:14:59.531Z,2.04
2016-03-17T07:15:59.519Z,2.09
2016-03-17T07:16:59.474Z,2.17
2016-03-17T07:17:59.430Z,2.2
2016-03-17T07:18:59.402Z,2.16
2016-03-17T07:19:59.389Z,2.27
2016-03-17T07:20:59.329Z,2.2
2016-03-17T07:21:59.300Z,2.34
2016-03-17T07:22:59.255Z,2.49
2016-03-17T07:23:59.243Z,2.48
2016-03-17T07:24:59.199Z,2.49
2016-03-17T07:25:59.171Z,2.52
2016-03-17T07:26:59.127Z,2.49
2016-03-17T07:27:59.099Z,2.59
2016-03-17T07:28:59.038Z,2.63
2016-03-17T07:29:59.025Z,2.63
2016-03-17T07:30:58.981Z,2.73
2016-03-17T07:31:58.952Z,2.73
2016-03-17T07:32:58.908Z,2.89
2016-03-17T07:33:58.896Z,2.87
2016-03-17T07:34:58.898Z,2.89
2016-03-17T07:35:58.822Z,3.02
2016-03-17T07:36:58.778Z,3
2016-03-17T07:37:58.765Z,3
2016-03-17T07:38:58.706Z,3.09
2016-03-17T07:39:58.677Z,3.12
2016-03-17T07:40:58.648Z,3.06
2016-03-17T07:41:58.619Z,3.18
2016-03-17T07:42:58.575Z,3.25
2016-03-17T07:43:58.547Z,3.36
2016-03-17T07:44:58.503Z,3.34
2016-03-17T07:45:58.475Z,3.47
2016-03-17T07:46:58.445Z,3.46
2016-03-17T07:47:58.417Z,3.53
2016-03-17T07:48:58.373Z,3.52
2016-03-17T07:49:58.360Z,3.65
2016-03-17T07:50:58.316Z,3.67
2016-03-17T07:51:58.272Z,3.62
2016-03-17T07:52:58.243Z,3.7
2016-03-17T07:53:58.214Z,3.76
2016-03-17T07:54:58.185Z,3.82
2016-03-17T07:55:58.142Z,3.8
2016-03-17T07:56:58.113Z,3.89
2016-03-17T07:57:58.085Z,3.89
2016-03-17T07:58:58.057Z,4
2016-03-17T07:59:58.027Z,3.97
2016-03-17T08:00:57.983Z,4.1
2016-03-17T08:01:57.954Z,4.12
2016-03-17T08:02:57.926Z,4.08
2016-03-17T08:03:57.882Z,4.19
2016-03-17T08:04:57.854Z,4.19
2016-03-17T08:05:57.840Z,4.29
2016-03-17T08:06:57.786Z,4.33
2016-03-17T08:07:57.757Z,4.34
2016-03-17T08:08:57.712Z,4.44
2016-03-17T08:09:57.684Z,4.46
2016-03-17T08:10:57.672Z,4.58
2016-03-17T08:11:57.628Z,4.67
2016-03-17T08:12:57.584Z,4.65
2016-03-17T08:13:57.555Z,4.72
2016-03-17T08:14:57.526Z,4.73
2016-03-17T08:15:57.498Z,4.8
2016-03-17T08:16:57.453Z,4.91
2016-03-17T08:17:57.456Z,4.86
2016-03-17T08:18:57.411Z,4.99
2016-03-17T08:19:57.368Z,5.04
2016-03-17T08:20:57.339Z,5.1
2016-03-17T08:21:57.311Z,5.2
2016-03-17T08:22:57.266Z,5.13
2016-03-17T08:23:57.238Z,5.19
2016-03-17T08:24:57.209Z,5.35
2016-03-17T08:25:57.180Z,5.37
2016-03-17T08:26:57.136Z,5.38
2016-03-17T08:27:57.108Z,5.49
2016-03-17T08:28:57.080Z,5.5
2016-03-17T08:29:57.051Z,5.53
2016-03-17T08:30:57.022Z,5.6
2016-03-17T08:31:56.993Z,5.71
2016-03-17T08:32:56.949Z,5.78
2016-03-17T08:33:56.937Z,5.77
2016-03-17T08:34:56.893Z,5.77
2016-03-17T08:35:56.865Z,5.96
2016-03-17T08:36:56.836Z,6.03
2016-03-17T08:37:56.791Z,5.93
2016-03-17T08:38:56.607Z,6.03
2016-03-17T08:39:56.735Z,6.1
2016-03-17T08:40:56.706Z,6.07
2016-03-17T08:41:56.677Z,6.22
2016-03-17T08:42:56.648Z,6.22
2016-03-17T08:43:56.603Z,6.35
2016-03-17T08:44:56.560Z,6.41
2016-03-17T08:45:56.547Z,6.51
2016-03-17T08:46:56.519Z,6.51
2016-03-17T08:47:56.474Z,6.53
2016-03-17T08:48:56.570Z,6.59
2016-03-17T08:49:56.417Z,6.61
2016-03-17T08:50:56.389Z,6.69
2016-03-17T08:51:56.360Z,6.68
2016-03-17T08:52:56.331Z,6.71
2016-03-17T08:53:56.303Z,6.76
2016-03-17T08:54:56.259Z,6.77
2016-03-17T08:55:56.230Z,6.84
2016-03-17T08:56:56.217Z,6.87
2016-03-17T08:57:56.173Z,6.89
2016-03-17T08:58:56.144Z,6.86
2016-03-17T08:59:56.116Z,6.99
2016-03-17T09:00:56.088Z,7.04
2016-03-17T09:01:56.059Z,7.01
2016-03-17T09:02:56.015Z,7.05
2016-03-17T09:03:55.876Z,7.13
2016-03-17T09:04:55.958Z,7.16
2016-03-17T09:05:55.929Z,7.13
2016-03-17T09:06:55.890Z,7.24
2016-03-17T09:07:55.876Z,7.27
2016-03-17T09:08:55.833Z,7.32
2016-03-17T09:09:55.804Z,7.38
2016-03-17T09:10:55.776Z,7.38
2016-03-17T09:11:55.762Z,7.45
2016-03-17T09:12:55.718Z,7.44
2016-03-17T09:13:55.675Z,7.41
2016-03-17T09:14:55.646Z,7.56
2016-03-17T09:15:55.633Z,7.45
2016-03-17T09:16:55.604Z,7.53
2016-03-17T09:17:55.560Z,7.58
2016-03-17T09:18:55.563Z,7.66
2016-03-17T09:19:58.455Z,7.69
2016-03-17T09:20:55.458Z,7.71
2016-03-17T09:21:55.446Z,7.77
2016-03-17T09:22:57.588Z,7.77
2016-03-17T09:23:55.389Z,7.85
2016-03-17T09:24:55.344Z,7.85
2016-03-17T09:25:57.144Z,7.87
2016-03-17T09:26:55.291Z,7.93
2016-03-17T09:27:55.262Z,7.93
2016-03-17T09:28:55.218Z,7.96
2016-03-17T09:29:55.221Z,8.04
2016-03-17T09:30:55.161Z,8
2016-03-17T09:31:55.148Z,8.04
2016-03-17T09:32:55.104Z,8.03
2016-03-17T09:33:55.139Z,8.04
2016-03-17T09:34:55.063Z,8.15
2016-03-17T09:35:55.019Z,8.1
2016-03-17T09:36:54.850Z,8.22
2016-03-17T09:37:54.977Z,8.18
2016-03-17T09:38:54.949Z,8.22
2016-03-17T09:39:54.905Z,8.28
2016-03-17T09:40:54.892Z,8.32
2016-03-17T09:41:54.847Z,8.4
2016-03-17T09:42:54.819Z,8.44
2016-03-17T09:43:54.805Z,8.54
2016-03-17T09:44:54.746Z,8.58
2016-03-17T09:45:54.733Z,8.71
2016-03-17T09:46:54.688Z,8.68
2016-03-17T09:47:54.691Z,8.65
2016-03-17T09:48:54.647Z,8.65
2016-03-17T09:49:54.604Z,8.62
2016-03-17T09:50:54.590Z,8.69
2016-03-17T09:51:54.546Z,8.65
2016-03-17T09:52:54.518Z,8.76
2016-03-17T09:53:54.536Z,8.72
2016-03-17T09:54:54.461Z,8.73
2016-03-17T09:55:54.462Z,8.69
2016-03-17T09:56:54.403Z,8.94
2016-03-17T09:57:54.391Z,8.88
2016-03-17T09:58:54.346Z,8.96
2016-03-17T09:59:54.318Z,8.97
2016-03-17T10:00:54.289Z,8.97
2016-03-17T10:01:54.276Z,9.05
2016-03-17T10:02:54.248Z,9.04
2016-03-17T10:03:54.219Z,9.04
2016-03-17T10:04:54.175Z,9.09
2016-03-17T10:05:54.147Z,9.02
2016-03-17T10:06:54.117Z,9.16
2016-03-17T10:07:54.089Z,9.16
2016-03-17T10:08:54.061Z,9.24
2016-03-17T10:09:54.048Z,9.24
2016-03-17T10:10:54.003Z,9.31
2016-03-17T10:11:53.974Z,9.32
2016-03-17T10:12:53.947Z,9.35
2016-03-17T10:13:53.919Z,9.39
2016-03-17T10:14:53.888Z,9.39
2016-03-17T10:15:53.861Z,9.43
2016-03-17T10:16:53.832Z,9.4
2016-03-17T10:17:53.819Z,9.5
2016-03-17T10:18:53.774Z,9.49
2016-03-17T10:19:53.746Z,9.4
2016-03-17T10:20:53.718Z,9.46
2016-03-17T10:21:53.690Z,9.57
2016-03-17T10:22:53.660Z,9.58
2016-03-17T10:23:53.648Z,9.58
2016-03-17T10:24:53.618Z,9.58
2016-03-17T10:25:53.575Z,9.53
2016-03-17T10:26:53.546Z,9.66
2016-03-17T10:27:53.518Z,9.61
2016-03-17T10:28:53.490Z,9.67
2016-03-17T10:29:53.461Z,9.64
2016-03-17T10:30:53.432Z,9.67
2016-03-17T10:31:53.403Z,9.64
2016-03-17T10:32:53.360Z,9.67
2016-03-17T10:33:53.347Z,9.66
2016-03-17T10:34:53.317Z,9.71
2016-03-17T10:35:53.289Z,9.7
2016-03-17T10:36:53.261Z,9.68
2016-03-17T10:37:53.076Z,9.67
2016-03-17T10:38:53.204Z,9.73
2016-03-17T10:39:53.175Z,9.75
2016-03-17T10:40:53.162Z,9.76
2016-03-17T10:41:53.118Z,9.86
2016-03-17T10:42:53.105Z,9.93
2016-03-17T10:43:53.077Z,9.89
2016-03-17T10:44:53.048Z,9.86
2016-03-17T10:45:53.004Z,10
2016-03-17T10:46:52.991Z,10.1
2016-03-17T10:47:52.947Z,10.09
2016-03-17T10:48:52.934Z,10.18
2016-03-17T10:49:52.890Z,10.14
2016-03-17T10:50:52.861Z,10.14
2016-03-17T10:51:52.832Z,10.17
2016-03-17T10:52:52.804Z,10.15
2016-03-17T10:53:52.807Z,10.1
2016-03-17T10:54:52.747Z,10.12
2016-03-17T10:55:52.734Z,10.12
2016-03-17T10:56:52.705Z,10.03
2016-03-17T10:57:52.676Z,10.07
2016-03-17T10:58:52.649Z,10.04
2016-03-17T10:59:52.620Z,10.03
2016-03-17T11:00:52.591Z,10.06
2016-03-17T11:01:52.562Z,10.03
2016-03-17T11:02:52.534Z,10.07
2016-03-17T11:03:52.506Z,10.04
2016-03-17T11:04:52.476Z,10.12
2016-03-17T11:05:52.448Z,10.09
2016-03-17T11:06:52.420Z,10.1
2016-03-17T11:07:52.392Z,10.18
2016-03-17T11:08:52.362Z,10.24
2016-03-17T11:09:52.336Z,10.21
2016-03-17T11:10:52.309Z,10.24
2016-03-17T11:11:52.280Z,10.19
2016-03-17T11:12:52.267Z,10.36
2016-03-17T11:13:52.067Z,10.33
2016-03-17T11:14:52.209Z,10.36
2016-03-17T11:15:52.010Z,10.34
2016-03-17T11:16:52.137Z,10.3
2016-03-17T11:17:51.967Z,10.36
2016-03-17T11:18:52.095Z,10.4
2016-03-17T11:19:52.067Z,10.51
2016-03-17T11:20:52.038Z,10.47
2016-03-17T11:21:51.995Z,10.44
2016-03-17T11:22:51.980Z,10.47
2016-03-17T11:23:51.953Z,10.46
2016-03-17T11:24:51.924Z,10.47
2016-03-17T11:25:51.880Z,10.4
2016-03-17T11:26:51.866Z,10.52
2016-03-17T11:27:51.839Z,10.47
2016-03-17T11:28:51.810Z,10.51
2016-03-17T11:29:51.782Z,10.46
2016-03-17T11:30:51.753Z,10.53
2016-03-17T11:31:51.740Z,10.62
2016-03-17T11:32:51.695Z,10.55
2016-03-17T11:33:51.682Z,10.52
2016-03-17T11:34:51.654Z,10.46
2016-03-17T11:35:51.610Z,10.51
2016-03-17T11:36:51.598Z,10.55
2016-03-17T11:37:51.568Z,10.56
2016-03-17T11:38:51.524Z,10.63
2016-03-17T11:39:51.512Z,10.6
2016-03-17T11:40:51.499Z,10.6
2016-03-17T11:41:51.454Z,10.71
2016-03-17T11:42:51.442Z,10.76
2016-03-17T11:43:51.397Z,10.76
2016-03-17T11:44:51.353Z,10.71
2016-03-17T11:45:51.340Z,10.65
2016-03-17T11:46:51.328Z,10.74
2016-03-17T11:47:51.298Z,10.78
2016-03-17T11:48:51.255Z,10.77
2016-03-17T11:49:51.226Z,10.89
2016-03-17T11:50:51.197Z,10.89
2016-03-17T11:51:51.169Z,10.81
2016-03-17T11:52:51.172Z,10.73
2016-03-17T11:53:51.127Z,10.74
2016-03-17T11:54:51.099Z,10.8
2016-03-17T11:55:51.054Z,10.78
2016-03-17T11:56:51.041Z,10.77
2016-03-17T11:57:51.013Z,10.73
2016-03-17T11:58:50.985Z,10.76
2016-03-17T11:59:50.972Z,10.77
2016-03-17T12:00:50.932Z,10.74
2016-03-17T12:01:50.904Z,10.77
2016-03-17T12:02:50.875Z,10.71
2016-03-17T12:03:50.846Z,10.68
2016-03-17T12:04:50.818Z,10.74
2016-03-17T12:05:50.804Z,10.68
2016-03-17T12:06:50.776Z,10.73
2016-03-17T12:07:50.748Z,10.71
2016-03-17T12:08:50.720Z,10.6
2016-03-17T12:09:50.691Z,10.6
2016-03-17T12:10:50.678Z,10.6
2016-03-17T12:11:50.633Z,10.78
2016-03-17T12:12:50.605Z,10.91
2016-03-17T12:13:50.593Z,10.89
2016-03-17T12:14:50.564Z,10.8
2016-03-17T12:15:50.535Z,10.78
2016-03-17T12:16:50.506Z,10.76
2016-03-17T12:17:50.478Z,10.91
2016-03-17T12:18:50.449Z,10.95
2016-03-17T12:19:50.405Z,10.91
2016-03-17T12:20:50.392Z,11.03
2016-03-17T12:21:50.364Z,11.07
2016-03-17T12:22:50.179Z,11.07
2016-03-17T12:23:50.291Z,11.02
2016-03-17T12:24:50.278Z,11.07
2016-03-17T12:25:50.249Z,11.07
2016-03-17T12:26:50.221Z,11.02
2016-03-17T12:27:50.208Z,11.16
2016-03-17T12:28:50.163Z,11.2
2016-03-17T12:29:50.135Z,11.21
2016-03-17T12:30:50.107Z,11.27
2016-03-17T12:31:50.094Z,11.24
2016-03-17T12:32:50.081Z,11.27
2016-03-17T12:33:50.021Z,11.14
2016-03-17T12:34:50.007Z,11.17
2016-03-17T12:35:49.979Z,11.2
2016-03-17T12:36:49.951Z,11.09
2016-03-17T12:37:49.923Z,11.13
2016-03-17T12:38:49.893Z,11.16
2016-03-17T12:39:49.896Z,11.21
2016-03-17T12:40:49.853Z,11.24
2016-03-17T12:41:49.839Z,11.31
2016-03-17T12:42:49.796Z,11.31
2016-03-17T12:43:49.760Z,11.25
2016-03-17T12:44:49.720Z,11.38
2016-03-17T12:45:49.678Z,11.32
2016-03-17T12:46:49.637Z,11.29
2016-03-17T12:47:49.627Z,11.29
2016-03-17T12:48:49.576Z,11.32
2016-03-17T12:49:49.543Z,11.28
2016-03-17T12:50:49.495Z,11.34
2016-03-17T12:51:49.493Z,11.43
2016-03-17T12:52:49.444Z,11.36
2016-03-17T12:53:49.413Z,11.31
2016-03-17T12:54:49.383Z,11.29
2016-03-17T12:55:49.368Z,11.43
2016-03-17T12:56:49.339Z,11.36
2016-03-17T12:57:49.292Z,11.35
2016-03-17T12:58:49.279Z,11.5
2016-03-17T12:59:49.250Z,11.41
2016-03-17T13:00:49.220Z,11.43
2016-03-17T13:01:49.191Z,11.44
2016-03-17T13:02:49.161Z,11.44
2016-03-17T13:03:49.148Z,11.47
2016-03-17T13:04:49.119Z,11.5
2016-03-17T13:05:49.076Z,11.41
2016-03-17T13:06:49.016Z,11.5
2016-03-17T13:07:49.041Z,11.56
2016-03-17T13:08:48.997Z,11.54
2016-03-17T13:09:48.983Z,11.52
2016-03-17T13:10:48.939Z,11.54
2016-03-17T13:11:48.942Z,11.65
2016-03-17T13:12:48.898Z,11.67
2016-03-17T13:13:48.870Z,11.67
2016-03-17T13:14:48.856Z,11.67
2016-03-17T13:15:48.813Z,11.67